Erda, Utah
Current Conditions -  °F | °C
As of 3:53 PM on Sunday 21 Dec 2014 (Local Time) from KSLC Reporting Station
Overcast Overcast  
Wind Chill: 39°   Ceiling: 5000
Heat Index: 43°   Visibility: 10mi
Dew Point: 39°   Wind: 7mph
Humidity: 86%   Direction: 140°SE
Pressure: 29.93"   Gusts: NA
Location:  40.5393°N, 112.353°W
Report Text: KSLC 212253Z 14006KT 10SM FEW025 BKN050 OVC060 06/04 A2993 RMK AO2 SLP125 T00610039
Loading
Personal Weather Stations






























Interactive Weather Map New forecast layout! Learn more

10-Day Weather Forecast

Advertisements
Track Severe Weather on mobile